Terminal Aerodrome Forecast
Issued by NWS

Home | Current Version | Previous Version | Text Only | Print | Product List | Glossary On
Versions: 1 2 3 4 5 6 7 8 9 10 11 12 13 14 15 16 17
000
FTAK31 PAJN 012300
TAFAWG
TAF
PAWG 012330Z 0200/0224 VRB03KT P6SM -SHRA FEW005 BKN025 OVC050
     FM020400 27004KT P6SM VCSH SCT010 OVC025
     FM020900 VRB02KT 4SM BR VCFG BKN007 BKN030
     FM021400 25003KT 6SM BR FEW007 BKN040
     FM021800 31004KT P6SM SCT050 BKN070
      AMD LTD TO CLD VIS AND WIND 0206/0215=

USA.gov is the U.S. government's official web portal to all federal, state and local government web resources and services.